Time;durP1;ratioP1;P1;durP2;ratioP2;P2;SDS_P1;SDS_P2;PMS_P1;PMS_P2;Temp;Humidity;BMP_temperature;BMP_pressure;BME280_temperature;BME280_humidity;BME280_pressure;Samples;Min_cycle;Max_cycle;Signal;HPM_P1;HPM_P2
2022/11/20 00:02:48;;;;;;;107.55;36.38;;;;;;;-4.48;88.02;98943.97;8428831;28;20048;-77
2022/11/20 00:06:49;;;;;;;125.93;39.63;;;;;;;-4.59;88.92;98944.66;8427971;28;20074;-77
2022/11/20 00:10:50;;;;;;;134.45;42.75;;;;;;;-4.77;89.83;98940.97;8428932;28;20052;-77
2022/11/20 00:14:51;;;;;;;169.68;53.67;;;;;;;-4.78;89.97;98934.09;8424201;28;20149;-77
2022/11/20 00:18:53;;;;;;;131.35;43.17;;;;;;;-4.75;89.60;98933.66;8428618;28;20032;-77
2022/11/20 00:22:54;;;;;;;205.77;67.80;;;;;;;-4.81;90.17;98934.50;8392458;28;20052;-77
2022/11/20 00:26:55;;;;;;;190.18;60.30;;;;;;;-4.84;90.32;98929.66;8428502;28;20102;-77
2022/11/20 00:31:04;;;;;;;144.05;46.72;;;;;;;-4.87;90.34;98935.38;8410848;28;20051;-77
2022/11/20 00:35:05;;;;;;;136.63;42.50;;;;;;;-4.90;91.03;98933.16;8428446;28;20076;-77
2022/11/20 00:39:06;;;;;;;119.65;40.15;;;;;;;-4.84;90.26;98940.19;8428281;28;20432;-77
2022/11/20 00:43:07;;;;;;;103.45;37.08;;;;;;;-4.80;90.07;98938.75;8427455;28;20121;-77
2022/11/20 00:47:08;;;;;;;117.15;39.50;;;;;;;-4.78;89.72;98944.63;8428063;28;20036;-77
2022/11/20 00:51:11;;;;;;;116.93;37.65;;;;;;;-4.80;89.47;98941.38;8425569;28;20554;-77
2022/11/20 00:55:12;;;;;;;115.00;37.28;;;;;;;-4.82;89.29;98943.44;8426904;28;20063;-77
2022/11/20 00:59:13;;;;;;;103.97;36.55;;;;;;;-4.85;89.24;98943.84;8427243;28;20471;-77
2022/11/20 01:03:14;;;;;;;105.32;35.17;;;;;;;-4.86;89.44;98952.78;8426637;28;20039;-77
2022/11/20 01:07:15;;;;;;;112.72;36.67;;;;;;;-5.00;90.29;98956.53;8427325;28;20047;-77
2022/11/20 01:11:21;;;;;;;106.15;35.50;;;;;;;-5.09;90.95;98952.53;8426501;28;20093;-77
2022/11/20 01:15:22;;;;;;;104.07;35.53;;;;;;;-5.10;91.04;98956.19;8426765;28;20086;-76
2022/11/20 01:19:23;;;;;;;114.82;36.97;;;;;;;-5.06;90.82;98952.09;8323487;28;20048;-77
2022/11/20 01:23:24;;;;;;;120.05;39.38;;;;;;;-5.11;91.20;98952.72;8426343;28;20418;-77
2022/11/20 01:27:25;;;;;;;118.38;40.20;;;;;;;-5.07;91.16;98960.19;8426413;28;20048;-77
2022/11/20 01:31:31;;;;;;;108.28;36.88;;;;;;;-5.12;91.20;98953.75;8426160;28;20044;-77
2022/11/20 01:35:32;;;;;;;95.75;33.42;;;;;;;-5.13;91.26;98946.09;8424277;28;20044;-77
2022/11/20 01:39:33;;;;;;;98.40;35.63;;;;;;;-5.09;90.78;98942.00;8425985;28;20059;-77
2022/11/20 01:43:35;;;;;;;111.68;36.83;;;;;;;-5.09;90.88;98942.00;8407869;28;20040;-77
2022/11/20 01:47:41;;;;;;;115.97;39.75;;;;;;;-5.07;91.10;98939.94;8425887;28;20048;-77
2022/11/20 01:51:45;;;;;;;107.68;37.60;;;;;;;-5.04;90.75;98944.81;8372879;28;20121;-77
2022/11/20 01:55:49;;;;;;;100.63;34.55;;;;;;;-4.97;90.69;98950.81;8345494;28;20052;-77
2022/11/20 02:00:03;;;;;;;97.97;34.00;;;;;;;-4.95;90.29;98938.25;8337890;28;20045;-77
2022/11/20 02:04:05;;;;;;;94.50;33.95;;;;;;;-4.91;90.35;98939.44;8354470;28;20048;-77
2022/11/20 02:08:06;;;;;;;88.18;32.03;;;;;;;-4.91;90.13;98934.16;8232384;28;20166;-77
2022/11/20 02:13:42;;;;;;;95.22;34.38;;;;;;;-4.93;90.44;98940.69;8252882;28;20043;-77
2022/11/20 02:16:31;;;;;;;90.55;34.53;;;;;;;-4.98;90.29;98928.16;8245669;28;20054;-77
2022/11/20 02:20:32;;;;;;;101.30;34.75;;;;;;;-5.05;90.51;98937.91;8235103;28;20135;-76
2022/11/20 02:24:33;;;;;;;99.53;34.58;;;;;;;-5.10;90.75;98935.13;8238627;28;20046;-77
2022/11/20 02:28:34;;;;;;;104.13;36.53;;;;;;;-5.11;90.65;98934.31;8289243;28;20042;-77
2022/11/20 02:32:36;;;;;;;103.97;35.35;;;;;;;-5.13;90.48;98932.91;8247472;28;20097;-77
2022/11/20 02:36:39;;;;;;;99.50;33.20;;;;;;;-5.17;90.73;98931.69;8308199;28;20756;-77
2022/11/20 02:40:41;;;;;;;99.47;33.78;;;;;;;-5.20;90.80;98934.78;8402619;28;20543;-77
2022/11/20 02:44:42;;;;;;;103.25;32.75;;;;;;;-5.25;91.19;98937.22;8406136;28;20090;-77
2022/11/20 02:48:43;;;;;;;92.00;34.72;;;;;;;-5.28;91.41;98942.91;8413564;28;20486;-77
2022/11/20 02:52:43;;;;;;;97.72;34.03;;;;;;;-5.25;91.49;98931.97;8412157;28;20059;-76
2022/11/20 02:56:44;;;;;;;99.97;33.22;;;;;;;-5.25;91.05;98942.50;8413251;28;20047;-77
2022/11/20 03:00:45;;;;;;;89.00;31.85;;;;;;;-5.27;91.10;98939.25;8412049;28;20094;-77
2022/11/20 03:04:47;;;;;;;88.65;31.58;;;;;;;-5.28;90.68;98942.91;8362559;28;20517;-77
2022/11/20 03:08:48;;;;;;;90.13;31.67;;;;;;;-5.31;90.81;98943.34;8416462;28;20048;-77
2022/11/20 03:12:54;;;;;;;88.07;30.98;;;;;;;-5.31;90.66;98948.59;8408345;28;20051;-77
2022/11/20 03:16:55;;;;;;;87.55;31.40;;;;;;;-5.25;90.68;98947.75;8410880;28;20047;-77
2022/11/20 03:20:59;;;;;;;95.43;33.88;;;;;;;-5.19;90.83;98939.03;8407329;28;20407;-77
2022/11/20 03:25:00;;;;;;;95.47;31.63;;;;;;;-5.14;90.61;98944.47;8413392;28;20485;-77
2022/11/20 03:29:04;;;;;;;91.50;32.35;;;;;;;-5.07;90.40;98934.69;8363864;28;20060;-77
2022/11/20 03:33:04;;;;;;;95.20;31.52;;;;;;;-5.02;90.11;98937.47;8402121;28;20117;-77
2022/11/20 03:37:06;;;;;;;91.28;31.85;;;;;;;-5.01;90.43;98939.09;8392416;28;20386;-77
2022/11/20 03:41:09;;;;;;;101.03;33.55;;;;;;;-5.04;90.08;98934.28;8361557;28;20132;-77
2022/11/20 03:45:10;;;;;;;96.18;32.13;;;;;;;-5.08;90.60;98935.72;8406181;28;20330;-77
2022/11/20 03:49:11;;;;;;;89.95;31.13;;;;;;;-5.07;90.36;98929.41;8405984;28;20082;-76
2022/11/20 03:53:13;;;;;;;93.22;31.73;;;;;;;-5.02;90.13;98937.47;8376202;28;20390;-77
2022/11/20 03:57:14;;;;;;;90.75;32.35;;;;;;;-4.97;90.08;98939.50;8418242;28;20071;-76
2022/11/20 04:01:35;;;;;;;92.18;32.05;;;;;;;-4.99;89.72;98931.81;8409390;28;20064;-77
2022/11/20 04:05:36;;;;;;;97.25;33.90;;;;;;;-5.03;89.86;98940.34;8414733;28;20143;-77
2022/11/20 04:09:37;;;;;;;87.63;32.83;;;;;;;-5.10;90.10;98935.13;8412905;28;20067;-77
2022/11/20 04:13:38;;;;;;;101.28;33.58;;;;;;;-5.14;90.04;98933.94;8408275;28;20056;-77
2022/11/20 04:17:39;;;;;;;93.22;32.75;;;;;;;-5.19;89.94;98925.84;8413410;28;20265;-77
2022/11/20 04:21:40;;;;;;;90.40;33.88;;;;;;;-5.23;89.92;98929.91;8406979;28;20059;-77
2022/11/20 04:25:41;;;;;;;88.07;31.10;;;;;;;-5.28;89.85;98927.91;8417301;28;20056;-77
2022/11/20 04:29:42;;;;;;;92.18;29.40;;;;;;;-5.30;90.05;98934.41;8408829;28;20410;-77
2022/11/20 04:33:44;;;;;;;92.15;32.38;;;;;;;-5.34;90.17;98933.25;8406834;28;20047;-77
2022/11/20 04:37:45;;;;;;;95.75;33.10;;;;;;;-5.40;90.01;98923.56;8407135;28;20079;-76
2022/11/20 04:41:46;;;;;;;103.07;32.63;;;;;;;-5.39;89.99;98919.91;8407015;28;20164;-77
2022/11/20 04:45:51;;;;;;;99.22;35.13;;;;;;;-5.42;90.06;98921.13;8358942;28;21102;-77
2022/11/20 04:49:52;;;;;;;99.63;34.63;;;;;;;-5.43;90.14;98918.69;8401415;28;20993;-77
2022/11/20 04:53:53;;;;;;;91.03;33.53;;;;;;;-5.47;90.03;98912.25;8360879;28;20122;-77
2022/11/20 04:57:54;;;;;;;100.78;34.38;;;;;;;-5.50;90.15;98923.19;8408855;28;20485;-77
2022/11/20 05:01:55;;;;;;;93.30;32.28;;;;;;;-5.59;90.40;98914.72;8416740;28;20040;-77
2022/11/20 05:05:59;;;;;;;96.18;32.13;;;;;;;-5.60;90.39;98913.91;8370698;28;20499;-77
2022/11/20 05:10:00;;;;;;;100.13;33.25;;;;;;;-5.63;90.72;98909.06;8411523;28;20052;-77
2022/11/20 05:14:01;;;;;;;93.90;33.10;;;;;;;-5.67;90.42;98902.63;8404030;28;20494;-77
2022/11/20 05:18:02;;;;;;;85.28;31.38;;;;;;;-5.68;90.50;98901.00;8391916;28;20038;-77
2022/11/20 05:22:05;;;;;;;86.07;30.38;;;;;;;-5.73;90.69;98898.19;8402779;28;21327;-77
2022/11/20 05:26:08;;;;;;;78.15;28.30;;;;;;;-5.69;90.62;98899.38;8368515;28;20051;-77
2022/11/20 05:30:09;;;;;;;83.07;29.58;;;;;;;-5.67;90.54;98886.84;8402515;28;20044;-77
2022/11/20 05:34:10;;;;;;;80.18;28.75;;;;;;;-5.64;90.54;98896.94;8351604;28;20052;-77
2022/11/20 05:38:12;;;;;;;82.35;30.10;;;;;;;-5.67;90.37;98889.47;8349231;28;20056;-77
2022/11/20 05:42:30;;;;;;;77.95;28.02;;;;;;;-5.70;90.53;98892.50;8350508;28;20051;-77
2022/11/20 05:46:32;;;;;;;76.70;27.50;;;;;;;-5.74;90.32;98886.06;8400737;28;20674;-77
2022/11/20 05:50:32;;;;;;;76.68;27.90;;;;;;;-5.78;90.66;98890.13;8352366;28;20417;-77
2022/11/20 05:54:34;;;;;;;76.05;27.08;;;;;;;-5.83;90.58;98887.31;8412836;28;20055;-77
2022/11/20 05:58:34;;;;;;;79.32;27.90;;;;;;;-5.90;90.34;98881.31;8413570;28;20486;-77
2022/11/20 06:02:36;;;;;;;85.45;30.95;;;;;;;-5.94;90.33;98879.28;8397892;28;20424;-77
2022/11/20 06:06:36;;;;;;;87.57;27.85;;;;;;;-5.94;90.34;98869.59;8403282;28;20121;-77
2022/11/20 06:10:37;;;;;;;81.90;29.15;;;;;;;-5.99;90.47;98869.41;8348706;28;20036;-77
2022/11/20 06:14:38;;;;;;;78.10;27.95;;;;;;;-6.03;90.54;98876.09;8390376;28;20101;-77
2022/11/20 06:18:39;;;;;;;84.97;28.92;;;;;;;-6.07;90.57;98882.75;8411345;28;20044;-77
2022/11/20 06:22:40;;;;;;;83.20;29.45;;;;;;;-6.11;90.60;98884.19;8412771;28;20044;-77
2022/11/20 06:26:41;;;;;;;88.10;30.88;;;;;;;-6.10;90.52;98891.06;8308957;28;20462;-76
2022/11/20 06:30:45;;;;;;;93.78;33.00;;;;;;;-6.08;90.47;98889.06;8302418;28;21066;-77
2022/11/20 06:34:46;;;;;;;91.10;34.35;;;;;;;-6.05;90.32;98894.69;8244295;28;20451;-77
2022/11/20 06:38:48;;;;;;;105.22;35.65;;;;;;;-6.11;91.02;98884.19;8299618;28;20087;-77
2022/11/20 06:42:49;;;;;;;100.60;33.47;;;;;;;-6.01;90.91;98879.31;8284951;28;20176;-77
2022/11/20 06:46:50;;;;;;;102.10;34.40;;;;;;;-5.95;90.60;98882.94;8284788;28;20507;-76
2022/11/20 06:50:51;;;;;;;124.85;38.17;;;;;;;-5.97;90.80;98880.50;8293208;28;20050;-76
2022/11/20 06:54:51;;;;;;;121.63;38.85;;;;;;;-5.95;91.68;98878.50;8299060;28;20119;-77
2022/11/20 06:58:53;;;;;;;137.00;44.10;;;;;;;-5.86;91.09;98877.19;8278634;28;20112;-77
2022/11/20 07:02:54;;;;;;;138.23;45.22;;;;;;;-5.84;91.45;98890.97;8307703;28;21225;-77
2022/11/20 07:06:55;;;;;;;122.68;39.55;;;;;;;-5.75;90.96;98873.91;8383204;28;20047;-77
2022/11/20 07:11:00;;;;;;;110.22;36.58;;;;;;;-5.74;91.53;98872.91;8399616;28;20052;-77
2022/11/20 07:15:01;;;;;;;102.38;38.10;;;;;;;-5.72;92.88;98873.50;8398039;28;20052;-77
2022/11/20 07:19:02;;;;;;;115.40;38.80;;;;;;;-5.58;92.69;98875.06;8409479;28;20559;-77
2022/11/20 07:23:03;;;;;;;121.43;40.65;;;;;;;-5.48;92.60;98879.03;8410749;28;20457;-77
2022/11/20 07:27:04;;;;;;;120.53;41.00;;;;;;;-5.39;92.69;98875.16;8417350;28;20040;-77
2022/11/20 07:31:09;;;;;;;112.80;39.10;;;;;;;-5.26;92.07;98867.16;8401814;28;20048;-77
2022/11/20 07:35:10;;;;;;;116.70;38.15;;;;;;;-5.15;92.03;98863.84;8402605;28;20086;-77
2022/11/20 07:39:11;;;;;;;118.68;40.10;;;;;;;-4.98;91.57;98853.59;8411194;28;20044;-77
2022/11/20 07:43:12;;;;;;;105.80;39.42;;;;;;;-4.86;91.33;98857.94;8369544;28;20048;-77
2022/11/20 07:47:13;;;;;;;111.38;37.65;;;;;;;-4.76;91.32;98853.00;8405213;28;20723;-77
2022/11/20 07:51:14;;;;;;;103.28;36.33;;;;;;;-4.61;91.75;98849.22;8390962;28;20449;-77
2022/11/20 07:55:15;;;;;;;99.38;35.95;;;;;;;-4.47;91.65;98842.81;8407881;28;20494;-77
2022/11/20 07:59:16;;;;;;;106.47;38.05;;;;;;;-4.36;91.05;98842.06;8405963;28;20056;-77
2022/11/20 08:03:17;;;;;;;111.50;39.20;;;;;;;-4.31;91.36;98839.59;8399026;28;20055;-77
2022/11/20 08:07:18;;;;;;;113.97;40.35;;;;;;;-4.20;91.27;98830.94;8414320;28;20469;-77
2022/11/20 08:15:40;;;;;;;117.75;43.65;;;;;;;-4.03;90.60;98847.81;8359989;28;20827;-77
2022/11/20 08:19:41;;;;;;;119.38;45.50;;;;;;;-3.94;90.64;98835.09;8380430;28;20436;-77
2022/11/20 08:23:42;;;;;;;110.70;41.15;;;;;;;-3.85;90.75;98850.41;8371338;28;20059;-76
2022/11/20 08:27:43;;;;;;;115.28;41.33;;;;;;;-3.79;90.55;98840.00;8406982;28;21145;-76
2022/11/20 08:31:44;;;;;;;115.82;40.72;;;;;;;-3.75;90.56;98841.19;8350559;28;20452;-76
2022/11/20 08:36:06;;;;;;;126.10;42.38;;;;;;;-3.67;90.55;98838.22;8418545;28;20036;-76
2022/11/20 08:40:11;;;;;;;115.80;41.38;;;;;;;-3.57;90.27;98825.28;8367242;28;20486;-76
2022/11/20 08:44:12;;;;;;;128.57;45.60;;;;;;;-3.46;90.12;98821.88;8422820;28;20375;-76
2022/11/20 08:48:13;;;;;;;122.57;43.58;;;;;;;-3.34;89.42;98814.81;8426144;28;20048;-76
2022/11/20 08:52:14;;;;;;;120.65;43.70;;;;;;;-3.24;89.15;98820.34;8404013;28;20048;-75
2022/11/20 08:56:16;;;;;;;125.38;45.75;;;;;;;-3.13;89.15;98821.41;8409446;28;20140;-76
2022/11/20 09:00:17;;;;;;;129.27;47.45;;;;;;;-3.09;89.01;98807.50;8404646;28;20134;-75
2022/11/20 09:04:18;;;;;;;211.35;63.33;;;;;;;-3.00;88.58;98810.59;8429059;28;20048;-76
2022/11/20 09:08:19;;;;;;;139.25;49.38;;;;;;;-2.92;88.56;98817.41;8428688;28;20408;-76
2022/11/20 09:12:20;;;;;;;147.75;50.72;;;;;;;-2.81;88.60;98813.97;8391809;28;20051;-76
2022/11/20 09:16:21;;;;;;;126.30;46.13;;;;;;;-2.70;88.65;98810.53;8428416;28;20413;-76
2022/11/20 09:20:24;;;;;;;139.00;48.53;;;;;;;-2.58;88.09;98803.38;8405102;28;20044;-76
2022/11/20 09:24:27;;;;;;;103.97;40.08;;;;;;;-2.48;87.50;98798.28;8365607;28;20072;-76
2022/11/20 09:28:29;;;;;;;169.77;49.88;;;;;;;-2.37;87.12;98794.84;8421743;28;20087;-76
2022/11/20 09:32:31;;;;;;;112.80;38.15;;;;;;;-2.25;86.44;98798.28;8432367;28;20138;-78
2022/11/20 09:36:32;;;;;;;143.02;48.45;;;;;;;-2.10;86.00;98794.31;8432533;28;20068;-75
2022/11/20 09:40:35;;;;;;;103.43;37.00;;;;;;;-1.98;86.09;98793.25;8346448;28;20056;-75
2022/11/20 09:44:53;;;;;;;93.13;34.97;;;;;;;-1.90;85.69;98803.47;8396964;28;20052;-75
2022/11/20 09:49:42;;;;;;;87.05;32.17;;;;;;;-1.84;84.69;98783.19;8394548;28;20052;-75
2022/11/20 09:53:51;;;;;;;93.65;36.38;;;;;;;-1.74;84.32;98788.66;8326450;28;20073;-75
2022/11/20 09:57:52;;;;;;;92.47;35.28;;;;;;;-1.60;84.23;98779.41;8276828;28;20096;-76
2022/11/20 10:01:57;;;;;;;93.85;33.80;;;;;;;-1.42;83.81;98786.31;8327009;28;20060;-76
2022/11/20 10:05:59;;;;;;;70.55;26.75;;;;;;;-1.33;82.54;98780.41;8323910;28;20054;-76
2022/11/20 10:10:01;;;;;;;75.85;28.25;;;;;;;-1.30;81.76;98774.63;8309326;28;20075;-76
2022/11/20 10:14:26;;;;;;;71.28;28.25;;;;;;;-1.20;80.97;98773.19;8325079;28;20055;-76
2022/11/20 10:18:45;;;;;;;66.97;27.10;;;;;;;-1.12;81.18;98770.16;8325935;28;20096;-75
2022/11/20 10:22:49;;;;;;;71.63;28.10;;;;;;;-0.99;80.49;98770.63;8326345;28;20056;-75
2022/11/20 10:26:57;;;;;;;58.58;24.45;;;;;;;-0.86;80.25;98754.38;8332658;28;20057;-76
2022/11/20 10:31:04;;;;;;;61.67;25.98;;;;;;;-0.75;79.30;98754.53;8395384;28;20070;-75
2022/11/20 10:35:26;;;;;;;52.45;20.42;;;;;;;-0.64;78.05;98735.88;8395800;28;20076;-76
2022/11/20 10:39:39;;;;;;;80.25;27.17;;;;;;;-0.55;78.10;98729.09;8385242;28;20415;-75
2022/11/20 10:43:40;;;;;;;75.72;29.13;;;;;;;-0.47;76.73;98735.78;8393988;28;20559;-76
2022/11/20 10:47:41;;;;;;;73.57;27.02;;;;;;;-0.46;77.08;98738.22;8396428;28;20113;-76
2022/11/20 10:51:49;;;;;;;65.80;26.70;;;;;;;-0.44;77.42;98735.31;8380550;28;20052;-76
2022/11/20 10:56:00;;;;;;;82.55;29.55;;;;;;;-0.35;77.17;98727.72;8356794;28;20056;-76
2022/11/20 11:00:09;;;;;;;64.60;23.70;;;;;;;-0.30;76.11;98719.81;8348601;28;20597;-75
2022/11/20 11:04:28;;;;;;;60.53;25.13;;;;;;;-0.21;75.86;98723.66;8366042;28;20487;-76
2022/11/20 11:08:35;;;;;;;64.13;26.20;;;;;;;-0.19;75.39;98724.19;8366290;28;20041;-76
2022/11/20 11:12:36;;;;;;;63.22;25.02;;;;;;;-0.15;75.42;98717.34;8350929;28;20068;-75
2022/11/20 11:16:53;;;;;;;71.63;26.80;;;;;;;-0.10;75.42;98709.44;8341740;28;20483;-76
2022/11/20 11:20:55;;;;;;;70.28;26.13;;;;;;;-0.09;74.67;98705.72;8365713;28;20080;-76
2022/11/20 11:24:56;;;;;;;63.97;25.88;;;;;;;-0.02;74.54;98695.72;8367814;28;20053;-76
2022/11/20 11:28:59;;;;;;;76.80;30.85;;;;;;;0.01;74.37;98695.22;8398565;28;20110;-76
2022/11/20 11:33:06;;;;;;;69.72;27.70;;;;;;;0.13;74.71;98687.91;8376464;28;20109;-76
2022/11/20 11:37:17;;;;;;;66.30;26.52;;;;;;;0.28;73.94;98680.09;8406810;28;20059;-76
2022/11/20 11:41:25;;;;;;;60.45;23.58;;;;;;;0.27;73.09;98673.16;8436565;28;20329;-76
2022/11/20 11:45:26;;;;;;;60.83;24.25;;;;;;;0.27;72.53;98678.47;8435271;28;20048;-76
2022/11/20 11:49:27;;;;;;;65.57;26.73;;;;;;;0.24;72.79;98668.38;8418242;28;20052;-76
2022/11/20 11:53:29;;;;;;;66.13;25.88;;;;;;;0.19;73.01;98673.63;8418015;28;20059;-76
2022/11/20 11:57:42;;;;;;;60.72;23.98;;;;;;;0.28;73.51;98664.16;8418100;28;20054;-76
2022/11/20 12:01:47;;;;;;;62.78;24.15;;;;;;;0.26;73.02;98671.59;8433204;28;20048;-75
2022/11/20 12:05:58;;;;;;;59.78;25.48;;;;;;;0.32;72.95;98670.56;8422479;28;20546;-76
2022/11/20 12:10:00;;;;;;;57.55;24.25;;;;;;;0.24;73.21;98655.09;8435184;28;20115;-75
2022/11/20 12:14:13;;;;;;;58.00;23.70;;;;;;;0.32;71.83;98665.25;8357249;28;20087;-76
2022/11/20 12:18:22;;;;;;;59.38;24.70;;;;;;;0.34;72.35;98663.13;8351173;28;20056;-75
2022/11/20 12:22:53;;;;;;;61.63;24.70;;;;;;;0.60;72.34;98666.00;8362949;28;20526;-75
2022/11/20 12:27:02;;;;;;;59.42;25.52;;;;;;;0.90;72.66;98657.44;8346000;28;20045;-76
2022/11/20 12:31:19;;;;;;;63.92;27.02;;;;;;;1.24;72.56;98656.81;8347809;28;20045;-76
2022/11/20 12:35:37;;;;;;;56.20;24.50;;;;;;;1.70;69.98;98654.31;8362165;28;20057;-76
2022/11/20 12:39:42;;;;;;;60.07;26.33;;;;;;;2.05;70.01;98646.44;8331694;28;20543;-76
2022/11/20 12:48:33;;;;;;;56.17;28.30;;;;;;;2.36;68.05;98630.47;8418224;28;20052;-76
2022/11/20 12:52:47;;;;;;;59.20;26.30;;;;;;;1.99;67.90;98620.84;8375005;28;20066;-76
2022/11/20 12:57:11;;;;;;;57.80;26.00;;;;;;;2.00;68.11;98625.13;8433033;28;20059;-75
2022/11/20 13:01:39;;;;;;;48.63;24.50;;;;;;;2.30;66.80;98620.88;8421768;28;20071;-75
2022/11/20 13:06:00;;;;;;;49.10;24.17;;;;;;;2.56;65.99;98614.47;8420359;28;20121;-75
2022/11/20 13:10:02;;;;;;;57.67;25.92;;;;;;;2.97;65.06;98610.63;8418792;28;20040;-75
2022/11/20 13:14:40;;;;;;;55.30;25.95;;;;;;;2.94;64.03;98607.72;8412387;28;20060;-75
2022/11/20 13:18:44;;;;;;;52.17;23.35;;;;;;;2.53;64.62;98601.69;8421242;28;20063;-75
2022/11/20 13:22:54;;;;;;;50.53;24.27;;;;;;;2.39;63.76;98608.59;8428920;28;20584;-74
2022/11/20 13:27:04;;;;;;;50.92;24.30;;;;;;;2.00;64.55;98601.16;8409289;28;20048;-75
2022/11/20 13:31:21;;;;;;;51.00;22.38;;;;;;;1.41;65.65;98591.97;8405278;28;20135;-75
2022/11/20 13:35:29;;;;;;;50.03;22.67;;;;;;;1.25;66.22;98594.59;8412141;28;20051;-75
2022/11/20 13:39:35;;;;;;;46.00;22.63;;;;;;;1.06;67.04;98580.13;8395528;28;20061;-75
2022/11/20 13:43:42;;;;;;;48.97;22.85;;;;;;;1.05;67.00;98577.75;8396210;28;20044;-75
2022/11/20 13:47:48;;;;;;;55.25;23.70;;;;;;;0.81;68.15;98572.03;8395680;28;20048;-75
2022/11/20 13:51:51;;;;;;;56.28;22.98;;;;;;;0.80;68.35;98575.75;8395640;28;20044;-75
2022/11/20 13:56:01;;;;;;;51.17;22.65;;;;;;;0.76;68.46;98580.00;8393385;28;20089;-75
2022/11/20 14:00:15;;;;;;;47.40;20.25;;;;;;;0.85;68.37;98567.81;8391940;28;20140;-75
2022/11/20 14:04:22;;;;;;;52.58;22.10;;;;;;;0.96;68.52;98568.66;8394231;28;20053;-75
2022/11/20 14:08:33;;;;;;;47.17;21.70;;;;;;;0.75;69.28;98573.06;8396010;28;20430;-75
2022/11/20 14:12:36;;;;;;;51.55;22.35;;;;;;;0.58;70.50;98577.78;8394106;28;20056;-75
2022/11/20 14:16:37;;;;;;;56.05;23.80;;;;;;;0.33;71.64;98565.91;8376423;28;20056;-75
2022/11/20 14:20:38;;;;;;;54.83;22.98;;;;;;;0.25;71.71;98569.06;8385042;28;20036;-75
2022/11/20 14:24:40;;;;;;;62.17;25.30;;;;;;;0.13;72.38;98565.78;8376925;28;20409;-75
2022/11/20 14:28:40;;;;;;;59.25;24.67;;;;;;;0.01;72.73;98573.09;8404264;28;20051;-75
2022/11/20 14:32:43;;;;;;;65.72;24.95;;;;;;;-0.12;73.57;98565.56;8404199;28;20059;-75
2022/11/20 14:36:44;;;;;;;56.65;24.17;;;;;;;-0.29;74.40;98556.91;8403483;28;20090;-76
2022/11/20 14:40:46;;;;;;;56.30;24.25;;;;;;;-0.48;75.15;98549.31;8384663;28;20044;-76
2022/11/20 14:44:48;;;;;;;61.58;26.08;;;;;;;-0.67;76.43;98545.41;8400826;28;20219;-75
2022/11/20 14:48:52;;;;;;;66.55;28.23;;;;;;;-0.72;76.16;98542.72;8437049;28;20040;-75
2022/11/20 14:52:58;;;;;;;199.98;60.25;;;;;;;-0.81;76.12;98546.88;8384674;28;20348;-75
2022/11/20 14:57:01;;;;;;;238.43;69.75;;;;;;;-0.93;76.63;98540.88;8437634;28;20048;-75
2022/11/20 15:01:05;;;;;;;242.10;76.63;;;;;;;-1.03;76.70;98540.78;8436478;28;20048;-75
2022/11/20 15:05:06;;;;;;;208.80;68.45;;;;;;;-1.11;77.26;98538.56;8436390;28;20040;-75
2022/11/20 15:09:14;;;;;;;172.13;59.17;;;;;;;-1.21;77.30;98538.41;8437239;28;20048;-75
2022/11/20 15:13:36;;;;;;;211.05;73.18;;;;;;;-1.33;77.85;98531.41;8437018;28;20086;-75
2022/11/20 15:17:40;;;;;;;258.25;87.20;;;;;;;-1.41;78.20;98534.47;8382364;28;20048;-76
2022/11/20 15:21:41;;;;;;;218.65;74.82;;;;;;;-1.47;78.20;98530.16;8436387;28;20052;-74
2022/11/20 15:25:42;;;;;;;175.18;62.70;;;;;;;-1.56;78.58;98531.63;8434187;28;20524;-76
2022/11/20 15:29:43;;;;;;;163.68;57.58;;;;;;;-1.63;78.70;98540.78;8407004;28;20138;-74
2022/11/20 15:33:45;;;;;;;146.82;55.45;;;;;;;-1.70;78.92;98535.69;8435839;28;20054;-76
2022/11/20 15:37:45;;;;;;;497.15;137.52;;;;;;;-1.81;79.57;98525.97;8435147;28;20048;-75
2022/11/20 15:41:47;;;;;;;427.50;120.75;;;;;;;-1.86;80.03;98541.78;8396944;28;20495;-76
2022/11/20 15:45:57;;;;;;;524.25;145.00;;;;;;;-1.92;80.03;98535.63;8431079;28;20044;-75
2022/11/20 15:49:58;;;;;;;469.60;125.88;;;;;;;-1.95;79.96;98537.91;8412842;28;20441;-74
2022/11/20 15:54:01;;;;;;;452.77;123.30;;;;;;;-2.01;80.01;98528.31;8377637;28;20048;-74
2022/11/20 15:58:02;;;;;;;342.08;93.22;;;;;;;-2.10;80.06;98530.56;8423741;28;20449;-75
2022/11/20 16:02:23;;;;;;;351.83;93.50;;;;;;;-2.17;80.12;98535.22;8423490;28;20129;-76
2022/11/20 16:06:25;;;;;;;327.48;90.72;;;;;;;-2.21;80.50;98524.31;8281865;28;20149;-75
2022/11/20 16:10:25;;;;;;;345.13;97.00;;;;;;;-2.28;80.26;98528.97;8317908;28;20046;-74
2022/11/20 16:18:46;;;;;;;312.58;90.65;;;;;;;-2.39;80.94;98521.91;8311175;28;20520;-75
2022/11/20 16:22:47;;;;;;;163.35;56.70;;;;;;;-2.43;81.02;98520.75;8326081;28;20069;-75
2022/11/20 16:26:48;;;;;;;191.20;62.05;;;;;;;-2.47;81.33;98519.63;8326810;28;20055;-75
2022/11/20 16:30:49;;;;;;;178.85;56.72;;;;;;;-2.53;81.21;98515.28;8311741;28;20492;-75
2022/11/20 16:34:50;;;;;;;188.32;57.03;;;;;;;-2.58;81.20;98523.16;8324502;28;20140;-76
2022/11/20 16:38:56;;;;;;;148.30;47.53;;;;;;;-2.63;81.73;98525.69;8430277;28;20106;-75
2022/11/20 16:42:57;;;;;;;156.57;51.67;;;;;;;-2.67;81.32;98514.00;8421812;28;20044;-76
2022/11/20 16:46:58;;;;;;;117.50;43.20;;;;;;;-2.70;81.28;98509.22;8429614;28;20044;-75
2022/11/20 16:50:59;;;;;;;114.22;41.05;;;;;;;-2.73;81.54;98520.22;8430244;28;20051;-75
2022/11/20 16:55:00;;;;;;;78.63;29.52;;;;;;;-2.62;81.49;98519.38;8429394;28;20060;-76
2022/11/20 16:59:02;;;;;;;59.70;21.58;;;;;;;-2.55;81.90;98522.69;8429086;28;20040;-75
2022/11/20 17:03:04;;;;;;;58.10;22.23;;;;;;;-2.51;81.56;98513.22;8429148;28;20040;-75
2022/11/20 17:07:05;;;;;;;58.00;21.45;;;;;;;-2.50;81.63;98512.19;8429355;28;20081;-76
2022/11/20 17:11:08;;;;;;;53.42;21.27;;;;;;;-2.47;81.88;98509.06;8429433;28;20488;-75
2022/11/20 17:15:09;;;;;;;59.92;20.75;;;;;;;-2.48;82.20;98518.03;8377569;28;20076;-75
2022/11/20 17:19:11;;;;;;;58.53;21.00;;;;;;;-2.46;82.28;98515.97;8429503;28;20055;-76
2022/11/20 17:23:12;;;;;;;54.85;21.52;;;;;;;-2.48;82.23;98507.44;8428959;28;20510;-75
2022/11/20 17:27:13;;;;;;;55.08;21.40;;;;;;;-2.47;82.20;98509.06;8410517;28;20164;-76
2022/11/20 17:31:16;;;;;;;61.97;22.63;;;;;;;-2.40;82.39;98515.00;8428305;28;20052;-76
2022/11/20 17:35:17;;;;;;;62.88;23.92;;;;;;;-2.38;82.77;98512.91;8428888;28;20052;-75
2022/11/20 17:39:18;;;;;;;67.32;24.98;;;;;;;-2.37;83.13;98514.50;8375291;28;20048;-75
2022/11/20 17:43:19;;;;;;;72.45;24.88;;;;;;;-2.36;83.05;98520.59;8428775;28;20496;-76
2022/11/20 17:47:20;;;;;;;81.28;29.38;;;;;;;-2.44;83.22;98521.81;8428400;28;20040;-75
2022/11/20 17:51:27;;;;;;;75.13;28.25;;;;;;;-2.50;83.25;98520.13;8372354;28;20060;-75
2022/11/20 17:57:51;;;;;;;84.60;29.10;;;;;;;-2.55;83.83;98527.97;8426394;28;20052;-76
2022/11/20 17:59:49;;;;;;;85.28;31.15;;;;;;;-2.59;83.61;98526.84;8427763;28;20478;-76
2022/11/20 18:03:50;;;;;;;79.60;28.48;;;;;;;-2.63;83.45;98526.50;8426030;28;20063;-77
2022/11/20 18:07:52;;;;;;;84.10;29.25;;;;;;;-2.67;83.40;98530.66;8428075;28;20143;-76
2022/11/20 18:11:53;;;;;;;83.80;30.63;;;;;;;-2.74;83.97;98523.91;8427329;28;20421;-76
2022/11/20 18:15:54;;;;;;;81.22;29.05;;;;;;;-2.75;83.71;98522.34;8427679;28;20054;-76
2022/11/20 18:19:55;;;;;;;77.75;28.63;;;;;;;-2.80;83.45;98524.88;8424566;28;20052;-76
2022/11/20 18:23:57;;;;;;;78.85;28.45;;;;;;;-2.82;83.75;98516.38;8373432;28;20052;-76
2022/11/20 18:27:58;;;;;;;74.35;29.00;;;;;;;-2.87;83.80;98518.94;8428190;28;20555;-76
2022/11/20 18:31:59;;;;;;;79.10;27.70;;;;;;;-2.98;84.12;98512.66;8415110;28;20072;-76
2022/11/20 18:36:11;;;;;;;74.65;26.58;;;;;;;-3.02;83.70;98517.63;8410550;28;20055;-76
2022/11/20 18:40:13;;;;;;;68.35;25.33;;;;;;;-3.08;84.16;98521.19;8409925;28;20394;-75
2022/11/20 18:48:37;;;;;;;73.97;26.40;;;;;;;-3.23;84.60;98520.91;8376359;28;20083;-76
2022/11/20 18:52:46;;;;;;;70.03;25.88;;;;;;;-3.27;84.62;98514.47;8419339;28;20056;-75
2022/11/20 18:56:47;;;;;;;69.25;26.23;;;;;;;-3.30;84.85;98525.50;8418899;28;20117;-75